PWSweather.com
Personal Weather Stations
Station Observations
SWHWX01
St AppolinardFR 38160

St AppolinardFR 38160

Lat: 45.191, Lon: 5.268

Elevation: 1460

Station Type: Davis Vantage Pro2 Plus

www.sweetwebhome.com/?show=wxindex

High Low Average
Temperature 81.9°F27.7°F 64.7°F18.2°F 73.9°F23.3°F
Dew Point 63.2°F17.3°F 52.7°F11.5°F 57.5°F14.2°F
Winds 9.1 mph -14.6 mph - 0.7 mph 1.1 mph 5.0 mph 8.0 mph
Wind Gusts 17.0 mph27.4 mph 2.0 mph3.2 mph 9.1 mph14.6 mph
Humidity 67% 44% 57%
Pressure 30.08 in1018.60 in 29.93 in1013.50 in -
Precipitation 0.00 in0.00 in - -
Hour Temp Dew Point Humidity Winds Wind Gusts Pressure Precip Precip Rate Daily Precip Total
12:00 AM 71.9°F22.2°C 53.8°F12.1°C 53% 6.2 mph SW10.0 kmh SW 9.0 mph14.5 kmh 29.94 in1013.9 mb - 0.00 in0.0 mm 0.00 in0.0 mm
12:30 AM 71.0°F21.7°C 53.5°F11.9°C 54% 5.2 mph WSW8.4 kmh WSW 8.0 mph12.9 kmh 29.94 in1013.9 mb - 0.00 in0.0 mm 0.00 in0.0 mm
01:00 AM 70.3°F21.3°C 53.4°F11.9°C 55% 3.5 mph WSW5.6 kmh WSW 7.0 mph11.3 kmh 29.93 in1013.5 mb - 0.00 in0.0 mm 0.00 in0.0 mm
01:30 AM 69.9°F21.1°C 53.5°F11.9°C 56% 5.6 mph WSW9.0 kmh WSW 11.0 mph17.7 kmh 29.93 in1013.5 mb - 0.00 in0.0 mm 0.00 in0.0 mm
02:00 AM 68.8°F20.4°C 53.5°F11.9°C 58% 4.9 mph W7.9 kmh W 7.0 mph11.3 kmh 29.93 in1013.5 mb - 0.00 in0.0 mm 0.00 in0.0 mm
02:30 AM 67.5°F19.7°C 52.7°F11.5°C 59% 3.7 mph WSW6.0 kmh WSW 7.0 mph11.3 kmh 29.94 in1013.9 mb - 0.00 in0.0 mm 0.00 in0.0 mm
03:00 AM 67.0°F19.4°C 52.7°F11.5°C 60% 3.5 mph WSW5.6 kmh WSW 7.0 mph11.3 kmh 29.94 in1013.9 mb - 0.00 in0.0 mm 0.00 in0.0 mm
03:30 AM 66.7°F19.3°C 52.8°F11.6°C 61% 3.8 mph WSW6.1 kmh WSW 7.0 mph11.3 kmh 29.94 in1013.9 mb - 0.00 in0.0 mm 0.00 in0.0 mm
04:00 AM 66.2°F19.0°C 53.7°F12.1°C 64% 4.1 mph WSW6.6 kmh WSW 6.0 mph9.7 kmh 29.94 in1013.9 mb - 0.00 in0.0 mm 0.00 in0.0 mm
04:30 AM 65.7°F18.7°C 53.6°F12.0°C 65% 4.1 mph WSW6.6 kmh WSW 6.0 mph9.7 kmh 29.95 in1014.2 mb - 0.00 in0.0 mm 0.00 in0.0 mm
05:00 AM 65.3°F18.5°C 53.6°F12.0°C 66% 5.0 mph SW8.0 kmh SW 9.0 mph14.5 kmh 29.95 in1014.2 mb - 0.00 in0.0 mm 0.00 in0.0 mm
05:30 AM 64.7°F18.2°C 53.5°F11.9°C 67% 5.3 mph WSW8.5 kmh WSW 9.0 mph14.5 kmh 29.95 in1014.2 mb - 0.00 in0.0 mm 0.00 in0.0 mm
06:00 AM 64.9°F18.3°C 53.3°F11.8°C 66% 3.4 mph WSW5.5 kmh WSW 9.0 mph14.5 kmh 29.95 in1014.2 mb - 0.00 in0.0 mm 0.00 in0.0 mm
06:30 AM 65.9°F18.8°C 53.4°F11.9°C 64% 4.5 mph WSW7.2 kmh WSW 9.0 mph14.5 kmh 29.95 in1014.2 mb - 0.00 in0.0 mm 0.00 in0.0 mm
07:00 AM 66.8°F19.3°C 53.8°F12.1°C 63% 3.6 mph SW5.8 kmh SW 10.0 mph16.1 kmh 29.96 in1014.6 mb - 0.00 in0.0 mm 0.00 in0.0 mm
07:30 AM 67.5°F19.7°C 54.9°F12.7°C 64% 5.5 mph WSW8.9 kmh WSW 8.0 mph12.9 kmh 29.96 in1014.6 mb - 0.00 in0.0 mm 0.00 in0.0 mm
08:00 AM 68.3°F20.2°C 56.1°F13.4°C 65% 8.6 mph WSW13.8 kmh WSW 15.0 mph24.1 kmh 29.98 in1015.2 mb - 0.00 in0.0 mm 0.00 in0.0 mm
08:30 AM 70.0°F21.1°C 56.8°F13.8°C 63% 6.0 mph SW9.7 kmh SW 9.0 mph14.5 kmh 29.98 in1015.2 mb - 0.00 in0.0 mm 0.00 in0.0 mm
09:00 AM 70.8°F21.6°C 58.4°F14.7°C 65% 5.2 mph WSW8.4 kmh WSW 10.0 mph16.1 kmh 30.00 in1015.9 mb - 0.00 in0.0 mm 0.00 in0.0 mm
09:30 AM 72.4°F22.4°C 59.5°F15.3°C 64% 9.1 mph WSW14.6 kmh WSW 14.0 mph22.5 kmh 30.02 in1016.6 mb - 0.00 in0.0 mm 0.00 in0.0 mm
10:00 AM 74.7°F23.7°C 59.9°F15.5°C 60% 8.0 mph WSW12.9 kmh WSW 11.0 mph17.7 kmh 30.02 in1016.6 mb - 0.00 in0.0 mm 0.00 in0.0 mm
10:30 AM 76.4°F24.7°C 60.0°F15.6°C 57% 6.7 mph S10.8 kmh S 9.0 mph14.5 kmh 30.02 in1016.6 mb - 0.00 in0.0 mm 0.00 in0.0 mm
11:00 AM 76.5°F24.7°C 60.1°F15.6°C 57% 5.8 mph WSW9.3 kmh WSW 13.0 mph20.9 kmh 30.02 in1016.6 mb - 0.00 in0.0 mm 0.00 in0.0 mm
11:30 AM 78.9°F26.1°C 61.4°F16.3°C 55% 2.2 mph WSW3.5 kmh WSW 9.0 mph14.5 kmh 30.02 in1016.6 mb - 0.00 in0.0 mm 0.00 in0.0 mm
12:00 PM 79.4°F26.3°C 59.7°F15.4°C 51% 5.7 mph WSW9.2 kmh WSW 8.0 mph12.9 kmh 30.01 in1016.3 mb - 0.00 in0.0 mm 0.00 in0.0 mm
12:30 PM 77.6°F25.3°C 61.6°F16.4°C 58% 0.7 mph SW1.1 kmh SW 2.0 mph3.2 kmh 30.00 in1015.9 mb - 0.00 in0.0 mm 0.00 in0.0 mm
01:00 PM 77.3°F25.2°C 62.3°F16.8°C 60% 5.1 mph S8.2 kmh S 8.0 mph12.9 kmh 30.00 in1015.9 mb - 0.00 in0.0 mm 0.00 in0.0 mm
01:30 PM 78.7°F25.9°C 62.7°F17.1°C 58% 5.6 mph SSW9.0 kmh SSW 11.0 mph17.7 kmh 30.00 in1015.9 mb - 0.00 in0.0 mm 0.00 in0.0 mm
02:00 PM 78.7°F25.9°C 63.2°F17.3°C 59% 5.9 mph SW9.5 kmh SW 16.0 mph25.7 kmh 29.99 in1015.6 mb - 0.00 in0.0 mm 0.00 in0.0 mm
02:30 PM 78.2°F25.7°C 61.2°F16.2°C 56% 5.1 mph SSW8.2 kmh SSW 9.0 mph14.5 kmh 30.00 in1015.9 mb - 0.00 in0.0 mm 0.00 in0.0 mm
03:00 PM 81.0°F27.2°C 61.7°F16.5°C 52% 5.3 mph WSW8.5 kmh WSW 10.0 mph16.1 kmh 29.99 in1015.6 mb - 0.00 in0.0 mm 0.00 in0.0 mm
03:30 PM 81.9°F27.7°C 61.4°F16.3°C 50% 5.6 mph SW9.0 kmh SW 11.0 mph17.7 kmh 29.98 in1015.2 mb - 0.00 in0.0 mm 0.00 in0.0 mm
04:00 PM 81.8°F27.7°C 61.3°F16.3°C 50% 4.2 mph WSW6.8 kmh WSW 8.0 mph12.9 kmh 29.98 in1015.2 mb - 0.00 in0.0 mm 0.00 in0.0 mm
04:30 PM 79.7°F26.5°C 61.1°F16.2°C 53% 7.3 mph WSW11.7 kmh WSW 17.0 mph27.4 kmh 29.99 in1015.6 mb - 0.00 in0.0 mm 0.00 in0.0 mm
05:00 PM 80.0°F26.7°C 60.2°F15.7°C 51% 4.2 mph SW6.8 kmh SW 10.0 mph16.1 kmh 30.00 in1015.9 mb - 0.00 in0.0 mm 0.00 in0.0 mm
05:30 PM 79.6°F26.4°C 60.4°F15.8°C 52% 1.6 mph SSW2.6 kmh SSW 4.0 mph6.4 kmh 29.99 in1015.6 mb - 0.00 in0.0 mm 0.00 in0.0 mm
06:00 PM 78.5°F25.8°C 61.5°F16.4°C 56% 3.5 mph WSW5.6 kmh WSW 6.0 mph9.7 kmh 29.98 in1015.2 mb - 0.00 in0.0 mm 0.00 in0.0 mm
06:30 PM 80.0°F26.7°C 62.4°F16.9°C 55% 3.5 mph SW5.6 kmh SW 5.0 mph8.0 kmh 29.98 in1015.2 mb - 0.00 in0.0 mm 0.00 in0.0 mm
07:00 PM 79.0°F26.1°C 61.5°F16.4°C 55% 5.1 mph SW8.2 kmh SW 7.0 mph11.3 kmh 29.98 in1015.2 mb - 0.00 in0.0 mm 0.00 in0.0 mm
07:30 PM 78.7°F25.9°C 61.7°F16.5°C 56% 6.3 mph WSW10.1 kmh WSW 14.0 mph22.5 kmh 29.99 in1015.6 mb - 0.00 in0.0 mm 0.00 in0.0 mm
08:00 PM 78.7°F25.9°C 60.1°F15.6°C 53% 2.4 mph SW3.9 kmh SW 3.0 mph4.8 kmh 29.99 in1015.6 mb - 0.00 in0.0 mm 0.00 in0.0 mm
08:30 PM 77.9°F25.5°C 58.3°F14.6°C 51% 4.1 mph SW6.6 kmh SW 7.0 mph11.3 kmh 30.00 in1015.9 mb - 0.00 in0.0 mm 0.00 in0.0 mm
09:00 PM 77.1°F25.1°C 56.5°F13.6°C 49% 7.5 mph WSW12.1 kmh WSW 11.0 mph17.7 kmh 30.02 in1016.6 mb - 0.00 in0.0 mm 0.00 in0.0 mm
09:30 PM 76.6°F24.8°C 53.1°F11.7°C 44% 7.1 mph WSW11.4 kmh WSW 10.0 mph16.1 kmh 30.03 in1016.9 mb - 0.00 in0.0 mm 0.00 in0.0 mm
10:00 PM 75.5°F24.2°C 53.3°F11.8°C 46% 5.7 mph WSW9.2 kmh WSW 13.0 mph20.9 kmh 30.05 in1017.6 mb - 0.00 in0.0 mm 0.00 in0.0 mm
10:30 PM 74.7°F23.7°C 54.3°F12.4°C 49% 6.0 mph W9.7 kmh W 11.0 mph17.7 kmh 30.06 in1017.9 mb - 0.00 in0.0 mm 0.00 in0.0 mm
11:00 PM 73.7°F23.2°C 55.0°F12.8°C 52% 3.9 mph WSW6.3 kmh WSW 6.0 mph9.7 kmh 30.07 in1018.3 mb - 0.00 in0.0 mm 0.00 in0.0 mm
11:30 PM 73.0°F22.8°C 56.4°F13.6°C 56% 4.6 mph W7.4 kmh W 9.0 mph14.5 kmh 30.08 in1018.6 mb - 0.00 in0.0 mm 0.00 in0.0 mm